Text Box: All records at near 07:00 local time
Kleivo 1 weather for Apr 2007
Month no. 5
Obs.
Da.
Temp. Dew Point Precip. Wind
Speed
Wind gusts Cloud cover Press. Humidity Wind dir. Sunny OPT
01.04.2007 -0,4   0,0 0,0   10 1034,4 92,0   1 77,5 %
02.04.2007 2,8   0,0 0,0   10 1033,4 93,0   1 82,5 %
03.04.2007 0,9   1,4 0,0   7 1024,9 80,0   1 72,5 %
04.04.2007 3,3   0,9 0,0   10 1020,5 93,0   1 82,5 %
05.04.2007 6,6   1,4 0,0   1 1010,0 91,0     62,5 %
06.04.2007 -0,4   0,1 0,0   1 1017,8 75,0     55,0 %
07.04.2007 0,6   2,4 0,0   1 1019,5 81,0     57,5 %
08.04.2007 -0,6   2,4 0,0   1 1017,8 90,0     55,0 %
09.04.2007 3,1   25,0 0,0   1 1002,3 96,0     40,0 %
10.04.2007 4,6   15,1 0,0   7 1003,6 94,0   1 62,5 %
11.04.2007 4,7   24,0 0,0   1 1014,4 94,0     40,0 %
12.04.2007 7,2   3,8 3,2   6 1023,9 92,0 90,0 1 72,5 %
13.04.2007 8,4   0,1 11,3   10 1026,6 86,0 135,0 1 80,0 %
14.04.2007 7,8   0,0 0,0   10 1027,0 67,0   1 87,5 %
15.04.2007 11,3   0,0 0,0   10 1026,6 54,0   1 90,0 %
16.04.2007 7,9   6,6 0,0   10 1020,5 80,0   1 82,5 %
17.04.2007 4,7   0,0 0,0   10 1017,8 92,0   1 82,5 %
18.04.2007 2,4   6,9 0,0   10 1017,8 89,0   1 75,0 %
19.04.2007 5,8   26,6 0,0   10 1000,2 94,0   1 65,0 %
20.04.2007 -1,0   3,2 0,0   10 1018,5 91,0   1 75,0 %
21.04.2007 -0,4   0,1 0,0   10 1023,2 89,0   1 77,5 %
22.04.2007 6,7   5,5 0,0   10 1013,4 93,0   1 82,5 %
23.04.2007 6,3   34,0 6,3   0 1013,4 94,0   1 32,5 %
24.04.2007 9,8   3,1 0,0   0 1010,0 86,0 180,0 1 60,0 %
25.04.2007 9,3   7,9 0,0   0 1014,8 91,0 180,0 1 57,5 %
26.04.2007 9,1   7,1 0,0   0 1016,5 90,0   1 57,5 %
27.04.2007 3,8   0,0 0,0   0 1027,7 98,0 0,0 1 57,5 %
28.04.2007 5,8   0,0 3,2   10 1028,7 94,0 337,5 1 85,0 %
29.04.2007 5,8   0,0 1,6   10 1029,0 92,0 180,0 1 85,0 %
30.04.2007 4,6   0,0 0,0   10 1024,3 93,0   1 82,5 %
                       
Avrg/Sum 4,7   177,6 0,9   6,2 1019,3 88,1 157,5 24 69,2 %